sensor_id;sensor_type;location;lat;lon;timestamp;P1;durP1;ratioP1;P2;durP2;ratioP2
56399;SDS011;42298;53.638;9.876;2023-12-22T00:00:55;19.70;;;5.33;;
56399;SDS011;42298;53.638;9.876;2023-12-22T00:03:20;19.03;;;5.07;;
56399;SDS011;42298;53.638;9.876;2023-12-22T00:05:45;21.20;;;5.27;;
56399;SDS011;42298;53.638;9.876;2023-12-22T00:08:11;21.93;;;5.20;;
56399;SDS011;42298;53.638;9.876;2023-12-22T00:10:36;17.93;;;5.43;;
56399;SDS011;42298;53.638;9.876;2023-12-22T00:13:01;28.37;;;5.23;;
56399;SDS011;42298;53.638;9.876;2023-12-22T00:15:26;24.20;;;5.43;;
56399;SDS011;42298;53.638;9.876;2023-12-22T00:17:52;26.40;;;6.23;;
56399;SDS011;42298;53.638;9.876;2023-12-22T00:20:17;21.07;;;5.37;;
56399;SDS011;42298;53.638;9.876;2023-12-22T00:22:43;21.83;;;5.23;;
56399;SDS011;42298;53.638;9.876;2023-12-22T00:25:09;21.40;;;5.47;;
56399;SDS011;42298;53.638;9.876;2023-12-22T00:27:35;21.07;;;5.80;;
56399;SDS011;42298;53.638;9.876;2023-12-22T00:30:00;25.90;;;5.70;;
56399;SDS011;42298;53.638;9.876;2023-12-22T00:32:25;18.80;;;4.37;;
56399;SDS011;42298;53.638;9.876;2023-12-22T00:34:51;25.53;;;5.57;;
56399;SDS011;42298;53.638;9.876;2023-12-22T00:37:16;20.63;;;5.37;;
56399;SDS011;42298;53.638;9.876;2023-12-22T00:39:41;21.53;;;5.03;;
56399;SDS011;42298;53.638;9.876;2023-12-22T00:42:07;20.33;;;4.50;;
56399;SDS011;42298;53.638;9.876;2023-12-22T00:44:32;20.37;;;4.70;;
56399;SDS011;42298;53.638;9.876;2023-12-22T00:46:58;20.53;;;5.50;;
56399;SDS011;42298;53.638;9.876;2023-12-22T00:49:23;24.40;;;5.50;;
56399;SDS011;42298;53.638;9.876;2023-12-22T00:51:48;21.97;;;5.67;;
56399;SDS011;42298;53.638;9.876;2023-12-22T00:54:14;31.83;;;6.50;;
56399;SDS011;42298;53.638;9.876;2023-12-22T00:56:39;23.50;;;5.33;;
56399;SDS011;42298;53.638;9.876;2023-12-22T00:59:05;24.00;;;6.63;;
56399;SDS011;42298;53.638;9.876;2023-12-22T01:01:30;26.13;;;5.70;;
56399;SDS011;42298;53.638;9.876;2023-12-22T01:03:55;19.97;;;5.20;;
56399;SDS011;42298;53.638;9.876;2023-12-22T01:06:20;23.00;;;5.57;;
56399;SDS011;42298;53.638;9.876;2023-12-22T01:08:46;24.50;;;5.67;;
56399;SDS011;42298;53.638;9.876;2023-12-22T01:11:14;18.23;;;4.90;;
56399;SDS011;42298;53.638;9.876;2023-12-22T01:13:41;20.43;;;4.63;;
56399;SDS011;42298;53.638;9.876;2023-12-22T01:16:06;20.17;;;5.17;;
56399;SDS011;42298;53.638;9.876;2023-12-22T01:18:31;18.73;;;4.40;;
56399;SDS011;42298;53.638;9.876;2023-12-22T01:20:56;17.57;;;4.07;;
56399;SDS011;42298;53.638;9.876;2023-12-22T01:23:22;12.77;;;3.20;;
56399;SDS011;42298;53.638;9.876;2023-12-22T01:25:47;16.17;;;3.40;;
56399;SDS011;42298;53.638;9.876;2023-12-22T01:28:12;13.57;;;3.57;;
56399;SDS011;42298;53.638;9.876;2023-12-22T01:30:38;10.53;;;2.70;;
56399;SDS011;42298;53.638;9.876;2023-12-22T01:33:03;13.20;;;4.23;;
56399;SDS011;42298;53.638;9.876;2023-12-22T01:35:28;12.23;;;3.13;;
56399;SDS011;42298;53.638;9.876;2023-12-22T01:37:54;10.93;;;2.40;;
56399;SDS011;42298;53.638;9.876;2023-12-22T01:40:19;10.20;;;2.20;;
56399;SDS011;42298;53.638;9.876;2023-12-22T01:42:45;8.23;;;1.90;;
56399;SDS011;42298;53.638;9.876;2023-12-22T01:45:11;10.50;;;2.60;;
56399;SDS011;42298;53.638;9.876;2023-12-22T01:47:36;9.07;;;2.10;;
56399;SDS011;42298;53.638;9.876;2023-12-22T01:50:02;12.10;;;2.33;;
56399;SDS011;42298;53.638;9.876;2023-12-22T01:52:28;6.23;;;1.73;;
56399;SDS011;42298;53.638;9.876;2023-12-22T01:54:54;9.63;;;2.10;;
56399;SDS011;42298;53.638;9.876;2023-12-22T01:57:20;7.00;;;2.23;;
56399;SDS011;42298;53.638;9.876;2023-12-22T01:59:46;11.63;;;2.50;;
56399;SDS011;42298;53.638;9.876;2023-12-22T02:02:13;7.17;;;1.90;;
56399;SDS011;42298;53.638;9.876;2023-12-22T02:04:39;11.93;;;2.10;;
56399;SDS011;42298;53.638;9.876;2023-12-22T02:07:04;10.70;;;2.77;;
56399;SDS011;42298;53.638;9.876;2023-12-22T02:09:34;11.03;;;2.33;;
56399;SDS011;42298;53.638;9.876;2023-12-22T02:11:59;10.67;;;2.00;;
56399;SDS011;42298;53.638;9.876;2023-12-22T02:14:25;9.73;;;2.30;;
56399;SDS011;42298;53.638;9.876;2023-12-22T02:22:07;9.43;;;2.23;;
56399;SDS011;42298;53.638;9.876;2023-12-22T02:24:34;11.70;;;2.93;;
56399;SDS011;42298;53.638;9.876;2023-12-22T02:27:04;14.90;;;3.37;;
56399;SDS011;42298;53.638;9.876;2023-12-22T02:29:48;13.20;;;3.27;;
56399;SDS011;42298;53.638;9.876;2023-12-22T02:32:21;10.80;;;2.50;;
56399;SDS011;42298;53.638;9.876;2023-12-22T02:34:52;14.10;;;2.90;;
56399;SDS011;42298;53.638;9.876;2023-12-22T02:37:19;12.57;;;2.83;;
56399;SDS011;42298;53.638;9.876;2023-12-22T02:39:47;10.97;;;2.43;;
56399;SDS011;42298;53.638;9.876;2023-12-22T02:42:14;10.97;;;2.97;;
56399;SDS011;42298;53.638;9.876;2023-12-22T02:44:40;12.63;;;2.90;;
56399;SDS011;42298;53.638;9.876;2023-12-22T02:47:05;13.13;;;2.90;;
56399;SDS011;42298;53.638;9.876;2023-12-22T02:49:31;13.37;;;2.80;;
56399;SDS011;42298;53.638;9.876;2023-12-22T02:51:56;17.10;;;2.77;;
56399;SDS011;42298;53.638;9.876;2023-12-22T02:54:22;11.97;;;2.50;;
56399;SDS011;42298;53.638;9.876;2023-12-22T02:56:47;11.57;;;2.43;;
56399;SDS011;42298;53.638;9.876;2023-12-22T02:59:12;8.27;;;1.93;;
56399;SDS011;42298;53.638;9.876;2023-12-22T03:01:38;9.63;;;1.70;;
56399;SDS011;42298;53.638;9.876;2023-12-22T03:04:03;7.27;;;1.60;;
56399;SDS011;42298;53.638;9.876;2023-12-22T03:06:29;9.80;;;1.70;;
56399;SDS011;42298;53.638;9.876;2023-12-22T03:08:54;3.53;;;1.43;;
56399;SDS011;42298;53.638;9.876;2023-12-22T03:11:19;5.97;;;1.63;;
56399;SDS011;42298;53.638;9.876;2023-12-22T03:13:44;6.27;;;1.47;;
56399;SDS011;42298;53.638;9.876;2023-12-22T03:16:10;8.07;;;2.03;;
56399;SDS011;42298;53.638;9.876;2023-12-22T03:18:37;6.67;;;1.70;;
56399;SDS011;42298;53.638;9.876;2023-12-22T03:21:04;4.37;;;1.63;;
56399;SDS011;42298;53.638;9.876;2023-12-22T03:23:29;5.70;;;1.33;;
56399;SDS011;42298;53.638;9.876;2023-12-22T03:25:54;5.57;;;1.50;;
56399;SDS011;42298;53.638;9.876;2023-12-22T03:28:20;5.83;;;2.87;;
56399;SDS011;42298;53.638;9.876;2023-12-22T03:30:45;4.13;;;1.30;;
56399;SDS011;42298;53.638;9.876;2023-12-22T03:33:11;3.90;;;1.50;;
56399;SDS011;42298;53.638;9.876;2023-12-22T03:35:36;6.50;;;1.90;;
56399;SDS011;42298;53.638;9.876;2023-12-22T03:38:01;5.37;;;1.57;;
56399;SDS011;42298;53.638;9.876;2023-12-22T03:40:27;9.00;;;2.00;;
56399;SDS011;42298;53.638;9.876;2023-12-22T03:42:52;8.83;;;1.87;;
56399;SDS011;42298;53.638;9.876;2023-12-22T03:45:17;9.63;;;2.07;;
56399;SDS011;42298;53.638;9.876;2023-12-22T03:47:43;10.00;;;2.20;;
56399;SDS011;42298;53.638;9.876;2023-12-22T03:50:08;11.07;;;2.30;;
56399;SDS011;42298;53.638;9.876;2023-12-22T03:52:35;10.37;;;2.73;;
56399;SDS011;42298;53.638;9.876;2023-12-22T03:55:00;8.17;;;2.57;;
56399;SDS011;42298;53.638;9.876;2023-12-22T03:57:25;11.30;;;2.30;;
56399;SDS011;42298;53.638;9.876;2023-12-22T03:59:51;10.80;;;3.00;;
56399;SDS011;42298;53.638;9.876;2023-12-22T04:02:16;13.43;;;2.60;;
56399;SDS011;42298;53.638;9.876;2023-12-22T04:04:41;12.57;;;2.90;;
56399;SDS011;42298;53.638;9.876;2023-12-22T04:07:07;16.87;;;3.37;;
56399;SDS011;42298;53.638;9.876;2023-12-22T04:09:32;16.67;;;3.43;;
56399;SDS011;42298;53.638;9.876;2023-12-22T04:11:57;11.03;;;2.97;;
56399;SDS011;42298;53.638;9.876;2023-12-22T04:14:23;13.90;;;3.23;;
56399;SDS011;42298;53.638;9.876;2023-12-22T04:16:48;16.23;;;3.27;;
56399;SDS011;42298;53.638;9.876;2023-12-22T04:19:14;16.53;;;2.90;;
56399;SDS011;42298;53.638;9.876;2023-12-22T04:21:39;10.43;;;2.73;;
56399;SDS011;42298;53.638;9.876;2023-12-22T04:24:05;12.57;;;3.50;;
56399;SDS011;42298;53.638;9.876;2023-12-22T04:26:30;10.27;;;3.03;;
56399;SDS011;42298;53.638;9.876;2023-12-22T04:28:56;11.17;;;2.70;;
56399;SDS011;42298;53.638;9.876;2023-12-22T04:31:21;11.60;;;3.17;;
56399;SDS011;42298;53.638;9.876;2023-12-22T04:33:46;18.57;;;3.00;;
56399;SDS011;42298;53.638;9.876;2023-12-22T04:36:11;13.67;;;3.20;;
56399;SDS011;42298;53.638;9.876;2023-12-22T04:38:37;10.80;;;2.50;;
56399;SDS011;42298;53.638;9.876;2023-12-22T04:41:05;13.03;;;2.77;;
56399;SDS011;42298;53.638;9.876;2023-12-22T04:43:30;14.57;;;3.37;;
56399;SDS011;42298;53.638;9.876;2023-12-22T04:45:56;14.77;;;2.80;;
56399;SDS011;42298;53.638;9.876;2023-12-22T04:48:21;16.40;;;2.83;;
56399;SDS011;42298;53.638;9.876;2023-12-22T04:50:46;14.50;;;3.33;;
56399;SDS011;42298;53.638;9.876;2023-12-22T04:53:12;18.50;;;3.97;;
56399;SDS011;42298;53.638;9.876;2023-12-22T04:55:37;12.60;;;3.57;;
56399;SDS011;42298;53.638;9.876;2023-12-22T04:58:03;16.50;;;3.80;;
56399;SDS011;42298;53.638;9.876;2023-12-22T05:00:28;15.47;;;3.17;;
56399;SDS011;42298;53.638;9.876;2023-12-22T05:02:53;14.73;;;3.30;;
56399;SDS011;42298;53.638;9.876;2023-12-22T05:05:19;17.70;;;4.07;;
56399;SDS011;42298;53.638;9.876;2023-12-22T05:07:44;17.37;;;3.53;;
56399;SDS011;42298;53.638;9.876;2023-12-22T05:10:09;9.20;;;2.33;;
56399;SDS011;42298;53.638;9.876;2023-12-22T05:12:34;11.77;;;3.03;;
56399;SDS011;42298;53.638;9.876;2023-12-22T05:15:00;11.13;;;2.60;;
56399;SDS011;42298;53.638;9.876;2023-12-22T05:17:25;12.33;;;2.63;;
56399;SDS011;42298;53.638;9.876;2023-12-22T05:19:51;9.43;;;2.50;;
56399;SDS011;42298;53.638;9.876;2023-12-22T05:22:16;12.57;;;2.40;;
56399;SDS011;42298;53.638;9.876;2023-12-22T05:24:41;13.03;;;2.63;;
56399;SDS011;42298;53.638;9.876;2023-12-22T05:27:07;12.17;;;2.80;;
56399;SDS011;42298;53.638;9.876;2023-12-22T05:29:33;15.47;;;3.43;;
56399;SDS011;42298;53.638;9.876;2023-12-22T05:31:58;13.40;;;3.13;;
56399;SDS011;42298;53.638;9.876;2023-12-22T05:34:24;14.30;;;2.87;;
56399;SDS011;42298;53.638;9.876;2023-12-22T05:36:49;12.00;;;3.20;;
56399;SDS011;42298;53.638;9.876;2023-12-22T05:39:15;15.10;;;3.27;;
56399;SDS011;42298;53.638;9.876;2023-12-22T05:41:40;15.70;;;3.43;;
56399;SDS011;42298;53.638;9.876;2023-12-22T05:44:05;14.23;;;3.70;;
56399;SDS011;42298;53.638;9.876;2023-12-22T05:46:35;10.47;;;2.63;;
56399;SDS011;42298;53.638;9.876;2023-12-22T05:49:00;7.83;;;2.13;;
56399;SDS011;42298;53.638;9.876;2023-12-22T05:51:26;15.20;;;3.57;;
56399;SDS011;42298;53.638;9.876;2023-12-22T05:53:51;9.13;;;2.37;;
56399;SDS011;42298;53.638;9.876;2023-12-22T05:56:19;10.77;;;2.77;;
56399;SDS011;42298;53.638;9.876;2023-12-22T05:58:45;10.00;;;2.67;;
56399;SDS011;42298;53.638;9.876;2023-12-22T06:01:14;10.13;;;2.50;;
56399;SDS011;42298;53.638;9.876;2023-12-22T06:03:40;8.93;;;2.50;;
56399;SDS011;42298;53.638;9.876;2023-12-22T06:06:05;8.10;;;2.00;;
56399;SDS011;42298;53.638;9.876;2023-12-22T06:08:31;11.63;;;2.13;;
56399;SDS011;42298;53.638;9.876;2023-12-22T06:10:56;12.43;;;2.93;;
56399;SDS011;42298;53.638;9.876;2023-12-22T06:13:21;12.47;;;2.73;;
56399;SDS011;42298;53.638;9.876;2023-12-22T06:15:47;13.03;;;2.77;;
56399;SDS011;42298;53.638;9.876;2023-12-22T06:18:12;12.53;;;2.83;;
56399;SDS011;42298;53.638;9.876;2023-12-22T06:20:38;8.77;;;2.20;;
56399;SDS011;42298;53.638;9.876;2023-12-22T06:23:04;9.33;;;2.37;;
56399;SDS011;42298;53.638;9.876;2023-12-22T06:25:29;14.57;;;2.93;;
56399;SDS011;42298;53.638;9.876;2023-12-22T06:27:55;19.30;;;3.70;;
56399;SDS011;42298;53.638;9.876;2023-12-22T06:30:21;13.23;;;3.30;;
56399;SDS011;42298;53.638;9.876;2023-12-22T06:32:46;21.17;;;3.80;;
56399;SDS011;42298;53.638;9.876;2023-12-22T06:35:12;18.23;;;3.93;;
56399;SDS011;42298;53.638;9.876;2023-12-22T06:37:38;16.07;;;3.53;;
56399;SDS011;42298;53.638;9.876;2023-12-22T06:40:04;19.90;;;4.00;;
56399;SDS011;42298;53.638;9.876;2023-12-22T06:42:30;14.83;;;3.97;;
56399;SDS011;42298;53.638;9.876;2023-12-22T06:44:55;21.97;;;4.53;;
56399;SDS011;42298;53.638;9.876;2023-12-22T06:47:21;21.13;;;4.50;;
56399;SDS011;42298;53.638;9.876;2023-12-22T06:49:46;19.07;;;4.07;;
56399;SDS011;42298;53.638;9.876;2023-12-22T06:52:11;17.03;;;3.90;;
56399;SDS011;42298;53.638;9.876;2023-12-22T06:54:37;18.03;;;4.37;;
56399;SDS011;42298;53.638;9.876;2023-12-22T06:57:02;22.33;;;5.57;;
56399;SDS011;42298;53.638;9.876;2023-12-22T06:59:28;20.70;;;4.37;;
56399;SDS011;42298;53.638;9.876;2023-12-22T07:01:53;23.67;;;5.23;;
56399;SDS011;42298;53.638;9.876;2023-12-22T07:04:21;23.63;;;6.50;;
56399;SDS011;42298;53.638;9.876;2023-12-22T07:06:46;20.97;;;5.80;;
56399;SDS011;42298;53.638;9.876;2023-12-22T07:11:46;20.27;;;5.23;;
56399;SDS011;42298;53.638;9.876;2023-12-22T07:14:12;27.30;;;5.10;;
56399;SDS011;42298;53.638;9.876;2023-12-22T07:16:38;19.60;;;3.93;;
56399;SDS011;42298;53.638;9.876;2023-12-22T07:19:04;21.77;;;5.20;;
56399;SDS011;42298;53.638;9.876;2023-12-22T07:21:32;19.33;;;4.90;;
56399;SDS011;42298;53.638;9.876;2023-12-22T07:23:58;26.13;;;5.00;;
56399;SDS011;42298;53.638;9.876;2023-12-22T07:26:27;22.87;;;5.23;;
56399;SDS011;42298;53.638;9.876;2023-12-22T07:28:52;25.80;;;4.50;;
56399;SDS011;42298;53.638;9.876;2023-12-22T07:31:17;22.47;;;4.97;;
56399;SDS011;42298;53.638;9.876;2023-12-22T07:33:43;24.00;;;4.70;;
56399;SDS011;42298;53.638;9.876;2023-12-22T07:36:09;24.97;;;5.67;;
56399;SDS011;42298;53.638;9.876;2023-12-22T07:38:34;21.93;;;5.40;;
56399;SDS011;42298;53.638;9.876;2023-12-22T07:41:00;24.30;;;4.60;;
56399;SDS011;42298;53.638;9.876;2023-12-22T07:43:25;20.03;;;4.70;;
56399;SDS011;42298;53.638;9.876;2023-12-22T07:45:51;18.10;;;4.93;;
56399;SDS011;42298;53.638;9.876;2023-12-22T07:48:19;17.87;;;3.93;;
56399;SDS011;42298;53.638;9.876;2023-12-22T07:50:44;17.02;;;3.67;;
56399;SDS011;42298;53.638;9.876;2023-12-22T07:53:10;14.83;;;4.60;;
56399;SDS011;42298;53.638;9.876;2023-12-22T07:55:36;18.57;;;3.87;;
56399;SDS011;42298;53.638;9.876;2023-12-22T07:58:03;20.40;;;4.87;;
56399;SDS011;42298;53.638;9.876;2023-12-22T08:00:29;14.23;;;3.80;;
56399;SDS011;42298;53.638;9.876;2023-12-22T08:02:54;17.03;;;4.03;;
56399;SDS011;42298;53.638;9.876;2023-12-22T08:05:19;15.23;;;3.40;;
56399;SDS011;42298;53.638;9.876;2023-12-22T08:07:45;18.27;;;3.83;;
56399;SDS011;42298;53.638;9.876;2023-12-22T08:10:10;16.33;;;3.83;;
56399;SDS011;42298;53.638;9.876;2023-12-22T08:12:36;19.20;;;3.97;;
56399;SDS011;42298;53.638;9.876;2023-12-22T08:15:01;13.13;;;3.53;;
56399;SDS011;42298;53.638;9.876;2023-12-22T08:17:27;16.30;;;3.87;;
56399;SDS011;42298;53.638;9.876;2023-12-22T08:19:53;13.80;;;3.37;;
56399;SDS011;42298;53.638;9.876;2023-12-22T08:22:18;16.73;;;3.00;;
56399;SDS011;42298;53.638;9.876;2023-12-22T08:24:43;14.07;;;3.13;;
56399;SDS011;42298;53.638;9.876;2023-12-22T08:27:09;14.13;;;3.10;;
56399;SDS011;42298;53.638;9.876;2023-12-22T08:29:34;20.10;;;3.90;;
56399;SDS011;42298;53.638;9.876;2023-12-22T08:32:00;17.83;;;3.47;;
56399;SDS011;42298;53.638;9.876;2023-12-22T08:34:25;17.42;;;4.28;;
56399;SDS011;42298;53.638;9.876;2023-12-22T08:36:51;20.20;;;4.53;;
56399;SDS011;42298;53.638;9.876;2023-12-22T08:39:17;23.00;;;4.30;;
56399;SDS011;42298;53.638;9.876;2023-12-22T08:41:43;17.97;;;4.27;;
56399;SDS011;42298;53.638;9.876;2023-12-22T08:44:11;16.67;;;4.00;;
56399;SDS011;42298;53.638;9.876;2023-12-22T08:46:39;16.50;;;3.60;;
56399;SDS011;42298;53.638;9.876;2023-12-22T08:49:05;17.00;;;4.10;;
56399;SDS011;42298;53.638;9.876;2023-12-22T08:51:30;12.83;;;3.20;;
56399;SDS011;42298;53.638;9.876;2023-12-22T08:53:58;12.63;;;3.50;;
56399;SDS011;42298;53.638;9.876;2023-12-22T08:56:24;9.70;;;2.27;;
56399;SDS011;42298;53.638;9.876;2023-12-22T08:58:51;12.30;;;2.87;;
56399;SDS011;42298;53.638;9.876;2023-12-22T09:01:17;8.77;;;2.60;;
56399;SDS011;42298;53.638;9.876;2023-12-22T09:03:43;14.77;;;2.80;;
56399;SDS011;42298;53.638;9.876;2023-12-22T09:06:13;13.40;;;2.57;;
56399;SDS011;42298;53.638;9.876;2023-12-22T09:08:42;14.40;;;3.13;;
56399;SDS011;42298;53.638;9.876;2023-12-22T09:11:10;15.40;;;3.47;;
56399;SDS011;42298;53.638;9.876;2023-12-22T09:13:36;15.07;;;2.93;;
56399;SDS011;42298;53.638;9.876;2023-12-22T09:16:01;11.23;;;3.10;;
56399;SDS011;42298;53.638;9.876;2023-12-22T09:18:29;13.80;;;2.63;;
56399;SDS011;42298;53.638;9.876;2023-12-22T09:20:55;14.37;;;3.10;;
56399;SDS011;42298;53.638;9.876;2023-12-22T09:23:20;14.30;;;2.80;;
56399;SDS011;42298;53.638;9.876;2023-12-22T09:25:46;13.87;;;3.70;;
56399;SDS011;42298;53.638;9.876;2023-12-22T09:28:13;12.13;;;3.60;;
56399;SDS011;42298;53.638;9.876;2023-12-22T09:30:38;17.90;;;3.20;;
56399;SDS011;42298;53.638;9.876;2023-12-22T09:33:03;14.43;;;2.93;;
56399;SDS011;42298;53.638;9.876;2023-12-22T09:35:29;13.70;;;3.27;;
56399;SDS011;42298;53.638;9.876;2023-12-22T09:37:54;14.50;;;2.77;;
56399;SDS011;42298;53.638;9.876;2023-12-22T09:40:20;14.83;;;3.00;;
56399;SDS011;42298;53.638;9.876;2023-12-22T09:42:47;15.20;;;2.97;;
56399;SDS011;42298;53.638;9.876;2023-12-22T09:45:13;17.00;;;3.77;;
56399;SDS011;42298;53.638;9.876;2023-12-22T09:47:43;14.93;;;3.13;;
56399;SDS011;42298;53.638;9.876;2023-12-22T09:50:09;17.67;;;3.73;;
56399;SDS011;42298;53.638;9.876;2023-12-22T09:52:35;13.43;;;3.53;;
56399;SDS011;42298;53.638;9.876;2023-12-22T09:55:01;14.77;;;3.17;;
56399;SDS011;42298;53.638;9.876;2023-12-22T09:57:28;13.50;;;3.33;;
56399;SDS011;42298;53.638;9.876;2023-12-22T09:59:55;15.97;;;3.70;;
56399;SDS011;42298;53.638;9.876;2023-12-22T10:02:25;11.87;;;3.47;;
56399;SDS011;42298;53.638;9.876;2023-12-22T10:04:52;15.57;;;3.87;;
56399;SDS011;42298;53.638;9.876;2023-12-22T10:07:17;16.40;;;3.73;;
56399;SDS011;42298;53.638;9.876;2023-12-22T10:09:46;14.60;;;3.03;;
56399;SDS011;42298;53.638;9.876;2023-12-22T10:12:12;17.70;;;3.40;;
56399;SDS011;42298;53.638;9.876;2023-12-22T10:14:39;16.83;;;3.33;;
56399;SDS011;42298;53.638;9.876;2023-12-22T10:17:06;12.90;;;3.57;;
56399;SDS011;42298;53.638;9.876;2023-12-22T10:19:31;18.87;;;5.20;;
56399;SDS011;42298;53.638;9.876;2023-12-22T10:21:56;13.70;;;3.77;;
56399;SDS011;42298;53.638;9.876;2023-12-22T10:24:41;16.67;;;3.87;;
56399;SDS011;42298;53.638;9.876;2023-12-22T10:27:07;14.10;;;3.60;;
56399;SDS011;42298;53.638;9.876;2023-12-22T10:29:33;17.17;;;4.13;;
56399;SDS011;42298;53.638;9.876;2023-12-22T10:32:00;19.43;;;4.13;;
56399;SDS011;42298;53.638;9.876;2023-12-22T10:34:26;18.97;;;4.07;;
56399;SDS011;42298;53.638;9.876;2023-12-22T10:36:51;22.67;;;4.43;;
56399;SDS011;42298;53.638;9.876;2023-12-22T10:39:17;19.47;;;5.10;;
56399;SDS011;42298;53.638;9.876;2023-12-22T10:41:42;13.93;;;3.47;;
56399;SDS011;42298;53.638;9.876;2023-12-22T10:44:08;21.27;;;3.90;;
56399;SDS011;42298;53.638;9.876;2023-12-22T10:46:34;15.30;;;3.83;;
56399;SDS011;42298;53.638;9.876;2023-12-22T10:49:00;16.33;;;4.17;;
56399;SDS011;42298;53.638;9.876;2023-12-22T10:51:28;15.67;;;3.20;;
56399;SDS011;42298;53.638;9.876;2023-12-22T10:53:57;15.40;;;3.13;;
56399;SDS011;42298;53.638;9.876;2023-12-22T10:56:22;9.63;;;2.57;;
56399;SDS011;42298;53.638;9.876;2023-12-22T10:58:48;11.50;;;2.63;;
56399;SDS011;42298;53.638;9.876;2023-12-22T11:01:14;13.40;;;3.60;;
56399;SDS011;42298;53.638;9.876;2023-12-22T11:03:40;18.45;;;4.38;;
56399;SDS011;42298;53.638;9.876;2023-12-22T11:06:10;17.77;;;4.00;;
56399;SDS011;42298;53.638;9.876;2023-12-22T11:08:37;20.80;;;4.30;;
56399;SDS011;42298;53.638;9.876;2023-12-22T11:13:54;15.03;;;3.60;;
56399;SDS011;42298;53.638;9.876;2023-12-22T11:16:21;16.20;;;2.77;;
56399;SDS011;42298;53.638;9.876;2023-12-22T11:18:50;10.90;;;3.00;;
56399;SDS011;42298;53.638;9.876;2023-12-22T11:21:20;14.80;;;2.97;;
56399;SDS011;42298;53.638;9.876;2023-12-22T11:23:47;13.50;;;3.20;;
56399;SDS011;42298;53.638;9.876;2023-12-22T11:26:14;17.80;;;3.33;;
56399;SDS011;42298;53.638;9.876;2023-12-22T11:28:42;14.03;;;2.80;;
56399;SDS011;42298;53.638;9.876;2023-12-22T11:31:09;15.93;;;3.20;;
56399;SDS011;42298;53.638;9.876;2023-12-22T11:33:35;17.27;;;3.77;;
56399;SDS011;42298;53.638;9.876;2023-12-22T11:36:01;11.73;;;2.87;;
56399;SDS011;42298;53.638;9.876;2023-12-22T11:38:29;10.07;;;2.77;;
56399;SDS011;42298;53.638;9.876;2023-12-22T11:40:56;18.50;;;3.30;;
56399;SDS011;42298;53.638;9.876;2023-12-22T11:43:23;10.83;;;2.73;;
56399;SDS011;42298;53.638;9.876;2023-12-22T11:45:49;18.83;;;3.87;;
56399;SDS011;42298;53.638;9.876;2023-12-22T11:48:15;17.03;;;3.20;;
56399;SDS011;42298;53.638;9.876;2023-12-22T11:50:41;17.97;;;3.87;;
56399;SDS011;42298;53.638;9.876;2023-12-22T11:53:18;12.37;;;2.90;;
56399;SDS011;42298;53.638;9.876;2023-12-22T11:56:07;15.10;;;3.30;;
56399;SDS011;42298;53.638;9.876;2023-12-22T12:01:16;17.15;;;4.20;;
56399;SDS011;42298;53.638;9.876;2023-12-22T12:08:52;16.43;;;3.40;;
56399;SDS011;42298;53.638;9.876;2023-12-22T12:11:18;21.23;;;3.83;;
56399;SDS011;42298;53.638;9.876;2023-12-22T12:13:47;22.37;;;4.27;;
56399;SDS011;42298;53.638;9.876;2023-12-22T12:16:14;16.40;;;4.13;;
56399;SDS011;42298;53.638;9.876;2023-12-22T12:18:44;15.97;;;3.40;;
56399;SDS011;42298;53.638;9.876;2023-12-22T12:21:10;23.40;;;3.90;;
56399;SDS011;42298;53.638;9.876;2023-12-22T12:23:36;16.63;;;4.40;;
56399;SDS011;42298;53.638;9.876;2023-12-22T12:26:02;18.55;;;4.60;;
56399;SDS011;42298;53.638;9.876;2023-12-22T12:28:29;15.67;;;4.17;;
56399;SDS011;42298;53.638;9.876;2023-12-22T12:30:59;18.27;;;4.53;;
56399;SDS011;42298;53.638;9.876;2023-12-22T12:33:29;13.93;;;3.53;;
56399;SDS011;42298;53.638;9.876;2023-12-22T12:35:59;14.60;;;3.67;;
56399;SDS011;42298;53.638;9.876;2023-12-22T12:41:36;13.13;;;3.13;;
56399;SDS011;42298;53.638;9.876;2023-12-22T12:44:06;18.73;;;4.03;;
56399;SDS011;42298;53.638;9.876;2023-12-22T12:46:42;20.97;;;3.97;;
56399;SDS011;42298;53.638;9.876;2023-12-22T12:49:09;14.67;;;3.40;;
56399;SDS011;42298;53.638;9.876;2023-12-22T12:51:41;21.43;;;4.23;;
56399;SDS011;42298;53.638;9.876;2023-12-22T12:54:09;22.80;;;4.83;;
56399;SDS011;42298;53.638;9.876;2023-12-22T12:59:12;20.70;;;4.30;;
56399;SDS011;42298;53.638;9.876;2023-12-22T13:01:42;16.73;;;4.20;;
56399;SDS011;42298;53.638;9.876;2023-12-22T13:04:08;17.43;;;3.53;;
56399;SDS011;42298;53.638;9.876;2023-12-22T13:06:34;19.47;;;4.00;;
56399;SDS011;42298;53.638;9.876;2023-12-22T13:09:00;20.37;;;4.77;;
56399;SDS011;42298;53.638;9.876;2023-12-22T13:11:26;18.03;;;4.00;;
56399;SDS011;42298;53.638;9.876;2023-12-22T13:13:53;16.17;;;3.95;;
56399;SDS011;42298;53.638;9.876;2023-12-22T13:16:19;13.83;;;3.43;;
56399;SDS011;42298;53.638;9.876;2023-12-22T13:18:46;21.60;;;4.13;;
56399;SDS011;42298;53.638;9.876;2023-12-22T13:21:12;23.10;;;3.83;;
56399;SDS011;42298;53.638;9.876;2023-12-22T13:23:39;16.13;;;3.93;;
56399;SDS011;42298;53.638;9.876;2023-12-22T13:26:04;20.47;;;3.90;;
56399;SDS011;42298;53.638;9.876;2023-12-22T13:28:29;14.27;;;3.43;;
56399;SDS011;42298;53.638;9.876;2023-12-22T13:30:55;15.37;;;3.50;;
56399;SDS011;42298;53.638;9.876;2023-12-22T13:33:21;14.10;;;3.70;;
56399;SDS011;42298;53.638;9.876;2023-12-22T13:35:46;17.15;;;3.20;;
56399;SDS011;42298;53.638;9.876;2023-12-22T13:38:13;13.00;;;3.37;;
56399;SDS011;42298;53.638;9.876;2023-12-22T13:40:39;15.23;;;3.47;;
56399;SDS011;42298;53.638;9.876;2023-12-22T13:43:10;15.83;;;3.97;;
56399;SDS011;42298;53.638;9.876;2023-12-22T13:45:35;19.23;;;3.40;;
56399;SDS011;42298;53.638;9.876;2023-12-22T13:48:01;13.43;;;2.90;;
56399;SDS011;42298;53.638;9.876;2023-12-22T13:50:26;15.03;;;3.63;;
56399;SDS011;42298;53.638;9.876;2023-12-22T13:52:52;19.50;;;3.97;;
56399;SDS011;42298;53.638;9.876;2023-12-22T13:55:18;14.40;;;3.23;;
56399;SDS011;42298;53.638;9.876;2023-12-22T13:57:44;17.52;;;3.58;;
56399;SDS011;42298;53.638;9.876;2023-12-22T14:02:42;15.33;;;3.10;;
56399;SDS011;42298;53.638;9.876;2023-12-22T14:05:08;15.83;;;3.10;;
56399;SDS011;42298;53.638;9.876;2023-12-22T14:07:33;12.13;;;3.17;;
56399;SDS011;42298;53.638;9.876;2023-12-22T14:10:04;16.13;;;3.40;;
56399;SDS011;42298;53.638;9.876;2023-12-22T14:12:36;11.10;;;2.93;;
56399;SDS011;42298;53.638;9.876;2023-12-22T14:15:11;11.67;;;2.60;;
56399;SDS011;42298;53.638;9.876;2023-12-22T14:17:38;11.33;;;2.77;;
56399;SDS011;42298;53.638;9.876;2023-12-22T14:20:07;14.50;;;3.30;;
56399;SDS011;42298;53.638;9.876;2023-12-22T14:22:37;13.53;;;3.13;;
56399;SDS011;42298;53.638;9.876;2023-12-22T14:25:30;12.80;;;2.70;;
56399;SDS011;42298;53.638;9.876;2023-12-22T14:27:57;10.97;;;2.30;;
56399;SDS011;42298;53.638;9.876;2023-12-22T14:30:24;9.13;;;2.63;;
56399;SDS011;42298;53.638;9.876;2023-12-22T14:32:49;13.53;;;3.43;;
56399;SDS011;42298;53.638;9.876;2023-12-22T14:35:16;10.33;;;2.80;;
56399;SDS011;42298;53.638;9.876;2023-12-22T14:37:44;12.90;;;3.07;;
56399;SDS011;42298;53.638;9.876;2023-12-22T14:40:11;13.13;;;2.70;;
56399;SDS011;42298;53.638;9.876;2023-12-22T14:42:38;14.73;;;3.47;;
56399;SDS011;42298;53.638;9.876;2023-12-22T14:45:04;14.03;;;3.27;;
56399;SDS011;42298;53.638;9.876;2023-12-22T14:47:34;13.70;;;3.87;;
56399;SDS011;42298;53.638;9.876;2023-12-22T14:50:00;14.33;;;2.70;;
56399;SDS011;42298;53.638;9.876;2023-12-22T14:52:29;12.07;;;2.83;;
56399;SDS011;42298;53.638;9.876;2023-12-22T14:54:56;12.30;;;2.77;;
56399;SDS011;42298;53.638;9.876;2023-12-22T14:57:22;10.83;;;2.80;;